createdAt,value
2017-07-11T00:01:51.243Z,18.30
2017-07-11T00:04:18.804Z,18.30
2017-07-11T00:06:46.369Z,18.30
2017-07-11T00:09:14.724Z,18.20
2017-07-11T00:11:42.308Z,18.20
2017-07-11T00:14:10.657Z,18.10
2017-07-11T00:16:38.230Z,18.10
2017-07-11T00:19:05.789Z,18.10
2017-07-11T00:21:33.350Z,18.10
2017-07-11T00:24:00.913Z,18.00
2017-07-11T00:26:28.476Z,18.00
2017-07-11T00:28:56.053Z,18.00
2017-07-11T00:31:24.473Z,18.00
2017-07-11T00:33:52.034Z,18.00
2017-07-11T00:36:19.595Z,18.00
2017-07-11T00:38:47.157Z,18.00
2017-07-11T00:41:14.726Z,17.90
2017-07-11T00:43:42.298Z,17.90
2017-07-11T00:46:09.992Z,17.80
2017-07-11T00:48:38.333Z,17.70
2017-07-11T00:51:05.900Z,17.70
2017-07-11T00:53:33.470Z,17.70
2017-07-11T00:56:01.021Z,17.60
2017-07-11T00:58:28.582Z,17.60
2017-07-11T01:00:56.138Z,17.60
2017-07-11T01:03:23.703Z,17.60
2017-07-11T01:05:51.278Z,17.60
2017-07-11T01:08:18.859Z,17.60
2017-07-11T01:10:46.416Z,17.60
2017-07-11T01:13:14.007Z,17.50
2017-07-11T01:15:41.579Z,17.50
2017-07-11T01:18:09.169Z,17.50
2017-07-11T01:20:36.740Z,17.50
2017-07-11T01:23:04.306Z,17.50
2017-07-11T01:25:31.864Z,17.40
2017-07-11T01:27:59.661Z,17.50
2017-07-11T01:30:27.237Z,17.50
2017-07-11T01:32:54.794Z,17.50
2017-07-11T01:35:22.379Z,17.50
2017-07-11T01:37:50.713Z,17.50
2017-07-11T01:40:18.314Z,17.40
2017-07-11T01:42:45.917Z,17.40
2017-07-11T01:45:13.488Z,17.40
2017-07-11T01:47:41.055Z,17.40
2017-07-11T01:50:08.635Z,17.40
2017-07-11T01:52:36.194Z,17.40
2017-07-11T01:55:03.761Z,17.40
2017-07-11T01:57:32.091Z,17.40
2017-07-11T01:59:59.669Z,17.40
2017-07-11T02:02:27.249Z,17.40
2017-07-11T02:04:54.856Z,17.40
2017-07-11T02:07:22.430Z,17.40
2017-07-11T02:09:49.992Z,17.40
2017-07-11T02:12:17.565Z,17.50
2017-07-11T02:14:45.155Z,17.50
2017-07-11T02:17:13.495Z,17.50
2017-07-11T02:19:41.078Z,17.50
2017-07-11T02:22:08.640Z,17.50
2017-07-11T02:24:36.204Z,17.50
2017-07-11T02:27:03.768Z,17.50
2017-07-11T02:29:32.114Z,17.50
2017-07-11T02:31:59.762Z,17.50
2017-07-11T02:34:27.337Z,17.50
2017-07-11T02:36:54.899Z,17.50
2017-07-11T02:39:22.475Z,17.50
2017-07-11T02:41:50.926Z,17.50
2017-07-11T02:44:18.513Z,17.50
2017-07-11T02:46:46.107Z,17.50
2017-07-11T02:49:13.666Z,17.40
2017-07-11T02:51:41.228Z,17.40
2017-07-11T02:54:08.803Z,17.40
2017-07-11T02:56:36.467Z,17.30
2017-07-11T02:59:04.317Z,17.30
2017-07-11T03:01:31.888Z,17.30
2017-07-11T03:03:59.488Z,17.30
2017-07-11T03:06:27.877Z,17.30
2017-07-11T03:08:55.475Z,17.30
2017-07-11T03:11:23.054Z,17.30
2017-07-11T03:13:50.650Z,17.30
2017-07-11T03:16:19.010Z,17.20
2017-07-11T03:18:46.576Z,17.20
2017-07-11T03:21:14.169Z,17.20
2017-07-11T03:23:41.720Z,17.20
2017-07-11T03:26:10.069Z,17.20
2017-07-11T03:28:37.628Z,17.10
2017-07-11T03:31:05.197Z,17.20
2017-07-11T03:33:32.753Z,17.20
2017-07-11T03:36:00.316Z,17.20
2017-07-11T03:38:27.869Z,17.20
2017-07-11T03:40:55.437Z,17.20
2017-07-11T03:43:23.772Z,17.10
2017-07-11T03:45:51.350Z,17.10
2017-07-11T03:48:18.937Z,17.10
2017-07-11T03:50:47.282Z,17.10
2017-07-11T03:53:14.872Z,17.10
2017-07-11T03:55:43.198Z,17.00
2017-07-11T03:58:10.760Z,17.00
2017-07-11T04:00:38.350Z,17.00
2017-07-11T04:03:05.914Z,17.10
2017-07-11T04:05:33.487Z,17.10
2017-07-11T04:08:01.807Z,17.10
2017-07-11T04:10:29.379Z,17.10
2017-07-11T04:12:56.951Z,17.10
2017-07-11T04:15:24.527Z,17.20
2017-07-11T04:17:52.098Z,17.20
2017-07-11T04:20:20.478Z,17.30
2017-07-11T04:22:48.055Z,17.30
2017-07-11T04:25:15.647Z,17.30
2017-07-11T04:27:43.221Z,17.40
2017-07-11T04:30:11.080Z,17.40
2017-07-11T04:32:38.634Z,17.50
2017-07-11T04:35:06.207Z,17.50
2017-07-11T04:37:33.792Z,17.50
2017-07-11T04:40:01.386Z,17.60
2017-07-11T04:42:28.973Z,17.60
2017-07-11T04:44:56.600Z,17.70
2017-07-11T04:47:24.193Z,17.70
2017-07-11T04:49:51.781Z,17.80
2017-07-11T04:52:19.351Z,17.90
2017-07-11T04:54:47.674Z,18.00
2017-07-11T04:57:15.266Z,18.00
2017-07-11T04:59:42.848Z,18.10
2017-07-11T05:02:10.419Z,18.20
2017-07-11T05:04:37.972Z,18.30
2017-07-11T05:07:05.567Z,18.40
2017-07-11T05:09:33.115Z,18.40
2017-07-11T05:12:00.725Z,18.40
2017-07-11T05:14:28.307Z,18.50
2017-07-11T05:16:56.655Z,18.40
2017-07-11T05:19:25.079Z,18.40
2017-07-11T05:21:52.646Z,18.40
2017-07-11T05:24:20.202Z,18.30
2017-07-11T05:26:47.786Z,18.30
2017-07-11T05:29:15.358Z,18.20
2017-07-11T05:31:42.916Z,18.20
2017-07-11T05:34:10.473Z,18.20
2017-07-11T05:36:38.059Z,18.30
2017-07-11T05:39:06.410Z,18.40
2017-07-11T05:41:34.003Z,18.30
2017-07-11T05:44:02.363Z,18.50
2017-07-11T05:46:29.950Z,18.50
2017-07-11T05:48:58.308Z,18.60
2017-07-11T05:51:25.915Z,18.60
2017-07-11T05:53:53.508Z,18.70
2017-07-11T05:56:21.129Z,18.70
2017-07-11T05:58:48.727Z,18.80
2017-07-11T06:01:17.108Z,18.70
2017-07-11T06:03:44.716Z,18.80
2017-07-11T06:06:12.309Z,18.80
2017-07-11T06:08:39.920Z,18.90
2017-07-11T06:11:08.457Z,18.90
2017-07-11T06:13:36.673Z,19.00
2017-07-11T06:16:05.026Z,19.00
2017-07-11T06:18:32.915Z,19.00
2017-07-11T06:21:01.264Z,19.20
2017-07-11T06:23:28.869Z,19.10
2017-07-11T06:25:56.442Z,19.30
2017-07-11T06:28:24.053Z,19.30
2017-07-11T06:30:51.629Z,19.40
2017-07-11T06:33:19.203Z,19.50
2017-07-11T06:35:47.008Z,19.60
2017-07-11T06:38:15.395Z,19.70
2017-07-11T06:40:44.249Z,19.60
2017-07-11T06:43:12.159Z,19.70
2017-07-11T06:45:39.751Z,19.70
2017-07-11T06:48:08.197Z,19.70
2017-07-11T06:50:35.797Z,19.80
2017-07-11T06:53:03.396Z,19.80
2017-07-11T06:55:30.971Z,19.80
2017-07-11T06:57:58.951Z,19.90
2017-07-11T07:00:28.043Z,20.00
2017-07-11T07:02:55.660Z,19.90
2017-07-11T07:05:23.227Z,20.00
2017-07-11T07:07:50.819Z,20.00
2017-07-11T07:10:18.394Z,20.20
2017-07-11T07:12:47.429Z,20.10
2017-07-11T07:15:15.003Z,20.10
2017-07-11T07:17:43.289Z,20.00
2017-07-11T07:20:10.858Z,20.10
2017-07-11T07:22:38.498Z,20.20
2017-07-11T07:25:06.077Z,20.10
2017-07-11T07:27:34.562Z,20.20
2017-07-11T07:30:02.129Z,20.30
2017-07-11T07:32:29.765Z,20.40
2017-07-11T07:34:57.345Z,20.50
2017-07-11T07:37:25.332Z,20.50
2017-07-11T07:39:52.929Z,20.60
2017-07-11T07:42:20.531Z,20.70
2017-07-11T07:44:48.133Z,20.80
2017-07-11T07:47:15.690Z,20.90
2017-07-11T07:49:43.274Z,21.00
2017-07-11T07:52:10.848Z,21.00
2017-07-11T07:54:38.442Z,21.10
2017-07-11T07:57:06.946Z,21.20
2017-07-11T07:59:34.517Z,21.20
2017-07-11T08:02:02.118Z,21.20
2017-07-11T08:04:29.838Z,21.10
2017-07-11T08:06:57.461Z,21.00
2017-07-11T08:09:25.065Z,20.90
2017-07-11T08:11:52.634Z,20.90
2017-07-11T08:14:20.272Z,21.00
2017-07-11T08:16:47.848Z,21.20
2017-07-11T08:19:15.417Z,21.20
2017-07-11T08:21:43.886Z,21.20
2017-07-11T08:24:11.477Z,21.40
2017-07-11T08:26:39.093Z,21.40
2017-07-11T08:29:06.680Z,21.50
2017-07-11T08:31:34.273Z,21.50
2017-07-11T08:34:02.642Z,21.60
2017-07-11T08:36:30.237Z,21.50
2017-07-11T08:38:58.952Z,21.60
2017-07-11T08:41:26.513Z,21.60
2017-07-11T08:43:54.099Z,21.60
2017-07-11T08:46:22.014Z,21.60
2017-07-11T08:48:49.605Z,21.80
2017-07-11T08:51:17.208Z,22.00
2017-07-11T08:53:45.618Z,22.30
2017-07-11T08:56:13.216Z,22.20
2017-07-11T08:58:40.807Z,22.40
2017-07-11T09:01:09.154Z,22.40
2017-07-11T09:03:36.750Z,22.40
2017-07-11T09:06:05.088Z,22.40
2017-07-11T09:08:33.054Z,22.40
2017-07-11T09:11:00.642Z,22.40
2017-07-11T09:13:29.013Z,22.60
2017-07-11T09:15:56.587Z,22.60
2017-07-11T09:18:24.980Z,22.60
2017-07-11T09:20:52.560Z,22.60
2017-07-11T09:23:20.146Z,22.60
2017-07-11T09:25:47.746Z,22.60
2017-07-11T09:28:15.310Z,22.80
2017-07-11T09:30:43.667Z,23.00
2017-07-11T09:33:11.994Z,23.10
2017-07-11T09:35:40.072Z,23.00
2017-07-11T09:38:07.641Z,23.10
2017-07-11T09:40:35.266Z,23.10
2017-07-11T09:43:02.865Z,23.10
2017-07-11T09:45:30.462Z,23.10
2017-07-11T09:47:58.053Z,23.00
2017-07-11T09:50:25.711Z,23.00
2017-07-11T09:52:53.281Z,23.10
2017-07-11T09:55:20.864Z,23.20
2017-07-11T09:57:48.469Z,23.30
2017-07-11T10:00:16.075Z,23.30
2017-07-11T10:02:43.640Z,23.20
2017-07-11T10:05:11.239Z,23.30
2017-07-11T10:07:39.594Z,23.20
2017-07-11T10:10:07.245Z,23.20
2017-07-11T10:12:35.689Z,23.10
2017-07-11T10:15:04.794Z,23.20
2017-07-11T10:17:32.410Z,23.30
2017-07-11T10:20:00.743Z,23.40
2017-07-11T10:22:28.328Z,23.40
2017-07-11T10:24:55.909Z,23.60
2017-07-11T10:27:24.236Z,23.70
2017-07-11T10:29:51.812Z,23.70
2017-07-11T10:32:19.388Z,23.70
2017-07-11T10:34:46.993Z,23.80
2017-07-11T10:37:14.557Z,23.80
2017-07-11T10:39:42.218Z,23.90
2017-07-11T10:42:09.792Z,23.90
2017-07-11T10:44:38.401Z,23.90
2017-07-11T10:47:05.971Z,23.80
2017-07-11T10:49:33.590Z,23.60
2017-07-11T10:52:01.216Z,23.60
2017-07-11T10:54:28.784Z,23.60
2017-07-11T10:56:56.351Z,23.60
2017-07-11T10:59:25.211Z,23.70
2017-07-11T11:01:53.784Z,23.60
2017-07-11T11:04:22.165Z,23.50
2017-07-11T11:06:50.381Z,23.40
2017-07-11T11:09:18.001Z,23.40
2017-07-11T11:11:46.867Z,23.50
2017-07-11T11:14:14.417Z,23.50
2017-07-11T11:16:41.991Z,23.50
2017-07-11T11:19:11.338Z,23.90
2017-07-11T11:21:38.938Z,23.90
2017-07-11T11:24:07.481Z,23.90
2017-07-11T11:26:35.068Z,23.70
2017-07-11T11:29:02.626Z,23.60
2017-07-11T11:31:30.237Z,23.50
2017-07-11T11:33:57.821Z,23.60
2017-07-11T11:36:25.411Z,23.60
2017-07-11T11:38:53.870Z,23.60
2017-07-11T11:41:21.522Z,23.80
2017-07-11T11:43:49.113Z,24.10
2017-07-11T11:46:17.518Z,24.40
2017-07-11T11:48:45.111Z,24.60
2017-07-11T11:51:13.763Z,24.90
2017-07-11T11:53:43.024Z,24.80
2017-07-11T11:56:10.614Z,24.80
2017-07-11T11:58:38.937Z,24.90
2017-07-11T12:01:07.134Z,24.80
2017-07-11T12:03:35.442Z,24.90
2017-07-11T12:06:04.265Z,24.80
2017-07-11T12:08:31.852Z,24.80
2017-07-11T12:11:00.473Z,24.90
2017-07-11T12:13:28.068Z,24.90
2017-07-11T12:15:55.651Z,24.80
2017-07-11T12:18:23.218Z,24.80
2017-07-11T12:20:50.773Z,24.90
2017-07-11T12:23:18.382Z,24.70
2017-07-11T12:25:46.775Z,24.60
2017-07-11T12:28:14.382Z,24.60
2017-07-11T12:30:42.059Z,24.70
2017-07-11T12:33:09.630Z,24.90
2017-07-11T12:35:37.975Z,25.10
2017-07-11T12:38:06.695Z,25.10
2017-07-11T12:40:34.277Z,25.20
2017-07-11T12:43:01.870Z,25.20
2017-07-11T12:45:29.448Z,25.10
2017-07-11T12:47:57.566Z,25.00
2017-07-11T12:52:59.205Z,24.80
2017-07-11T12:55:26.810Z,24.80
2017-07-11T12:57:54.441Z,24.90
2017-07-11T13:00:22.029Z,25.00
2017-07-11T13:02:50.341Z,24.90
2017-07-11T13:05:17.960Z,24.90
2017-07-11T13:07:45.573Z,24.80
2017-07-11T13:10:13.507Z,24.90
2017-07-11T13:12:41.151Z,25.00
2017-07-11T13:15:09.479Z,25.10
2017-07-11T13:17:38.074Z,25.00
2017-07-11T13:20:07.237Z,25.10
2017-07-11T13:22:35.871Z,25.10
2017-07-11T13:25:04.034Z,25.30
2017-07-11T13:27:31.618Z,25.40
2017-07-11T13:29:59.237Z,25.40
2017-07-11T13:32:27.842Z,25.50
2017-07-11T13:34:56.158Z,25.70
2017-07-11T13:37:24.620Z,25.90
2017-07-11T13:39:52.244Z,26.10
2017-07-11T13:42:21.317Z,26.40
2017-07-11T13:44:49.285Z,26.40
2017-07-11T13:47:17.041Z,26.60
2017-07-11T13:49:45.420Z,26.40
2017-07-11T13:52:13.072Z,26.30
2017-07-11T13:54:40.644Z,26.20
2017-07-11T13:57:08.240Z,26.20
2017-07-11T13:59:35.840Z,26.30
2017-07-11T14:02:03.412Z,26.60
2017-07-11T14:04:30.995Z,26.80
2017-07-11T14:06:58.584Z,26.60
2017-07-11T14:09:26.161Z,26.80
2017-07-11T14:11:53.748Z,26.80
2017-07-11T14:14:21.313Z,26.90
2017-07-11T14:16:50.904Z,26.60
2017-07-11T14:19:18.494Z,26.10
2017-07-11T14:21:46.830Z,25.50
2017-07-11T14:24:14.404Z,25.50
2017-07-11T14:26:41.960Z,25.60
2017-07-11T14:29:09.546Z,25.80
2017-07-11T14:31:37.137Z,26.00
2017-07-11T14:34:04.713Z,26.40
2017-07-11T14:36:32.276Z,26.50
2017-07-11T14:38:59.874Z,26.70
2017-07-11T14:41:27.452Z,26.90
2017-07-11T14:43:55.829Z,27.30
2017-07-11T14:46:24.186Z,27.40
2017-07-11T14:48:52.238Z,27.40
2017-07-11T14:51:19.794Z,27.60
2017-07-11T14:53:47.365Z,27.60
2017-07-11T14:56:14.927Z,27.30
2017-07-11T14:58:42.511Z,27.10
2017-07-11T15:01:10.828Z,26.90
2017-07-11T15:03:38.419Z,26.90
2017-07-11T15:06:05.979Z,26.90
2017-07-11T15:08:33.566Z,27.10
2017-07-11T15:11:01.894Z,27.00
2017-07-11T15:13:29.472Z,27.00
2017-07-11T15:15:57.036Z,27.10
2017-07-11T15:18:25.396Z,26.70
2017-07-11T15:20:53.067Z,26.70
2017-07-11T15:23:20.663Z,26.90
2017-07-11T15:25:49.010Z,27.50
2017-07-11T15:28:16.630Z,27.50
2017-07-11T15:30:44.231Z,27.80
2017-07-11T15:33:11.802Z,27.70
2017-07-11T15:35:39.396Z,27.40
2017-07-11T15:38:06.954Z,26.90
2017-07-11T15:40:34.535Z,26.40
2017-07-11T15:43:02.113Z,25.90
2017-07-11T15:45:29.735Z,25.40
2017-07-11T15:47:57.345Z,25.10
2017-07-11T15:50:24.959Z,24.80
2017-07-11T15:52:52.622Z,24.70
2017-07-11T15:55:20.229Z,24.60
2017-07-11T15:57:47.794Z,24.50
2017-07-11T16:00:15.407Z,24.50
2017-07-11T16:02:42.979Z,24.50
2017-07-11T16:05:10.565Z,24.60
2017-07-11T16:07:38.128Z,24.70
2017-07-11T16:10:05.716Z,24.70
2017-07-11T16:12:33.314Z,24.60
2017-07-11T16:15:00.936Z,24.50
2017-07-11T16:17:28.505Z,24.40
2017-07-11T16:19:56.081Z,24.40
2017-07-11T16:22:23.653Z,24.60
2017-07-11T16:24:51.245Z,24.60
2017-07-11T16:27:18.818Z,24.60
2017-07-11T16:29:46.403Z,24.40
2017-07-11T16:32:13.960Z,24.40
2017-07-11T16:34:41.540Z,24.30
2017-07-11T16:37:09.101Z,24.20
2017-07-11T16:39:36.669Z,24.20
2017-07-11T16:42:04.280Z,24.30
2017-07-11T16:44:31.847Z,24.60
2017-07-11T16:46:59.409Z,24.90
2017-07-11T16:49:26.999Z,25.00
2017-07-11T16:51:54.584Z,25.00
2017-07-11T16:54:22.167Z,24.90
2017-07-11T16:56:50.512Z,24.80
2017-07-11T16:59:18.086Z,24.80
2017-07-11T17:01:45.660Z,24.70
2017-07-11T17:04:13.987Z,24.60
2017-07-11T17:06:41.915Z,24.60
2017-07-11T17:09:09.521Z,24.40
2017-07-11T17:11:37.109Z,24.40
2017-07-11T17:14:04.688Z,24.40
2017-07-11T17:16:32.294Z,24.60
2017-07-11T17:18:59.860Z,24.80
2017-07-11T17:21:27.437Z,25.00
2017-07-11T17:23:55.218Z,25.10
2017-07-11T17:26:23.552Z,24.90
2017-07-11T17:28:51.149Z,24.90
2017-07-11T17:31:19.509Z,24.80
2017-07-11T17:33:47.075Z,24.70
2017-07-11T17:36:14.675Z,24.60
2017-07-11T17:38:42.226Z,24.50
2017-07-11T17:41:09.806Z,24.40
2017-07-11T17:43:37.363Z,24.20
2017-07-11T17:46:04.942Z,24.00
2017-07-11T17:48:32.521Z,23.90
2017-07-11T17:51:00.104Z,23.80
2017-07-11T17:53:28.427Z,23.60
2017-07-11T17:55:55.999Z,23.60
2017-07-11T17:58:23.566Z,23.50
2017-07-11T18:00:51.130Z,23.40
2017-07-11T18:03:18.694Z,23.40
2017-07-11T18:05:46.289Z,23.40
2017-07-11T18:08:14.034Z,23.40
2017-07-11T18:10:42.416Z,23.40
2017-07-11T18:13:10.013Z,23.40
2017-07-11T18:15:37.616Z,23.40
2017-07-11T18:18:05.185Z,23.30
2017-07-11T18:20:33.523Z,23.20
2017-07-11T18:23:01.092Z,23.20
2017-07-11T18:25:28.729Z,23.20
2017-07-11T18:27:56.273Z,23.10
2017-07-11T18:30:23.890Z,23.10
2017-07-11T18:32:51.487Z,23.00
2017-07-11T18:35:19.057Z,22.90
2017-07-11T18:37:46.669Z,22.90
2017-07-11T18:40:14.258Z,22.80
2017-07-11T18:42:41.868Z,22.80
2017-07-11T18:45:12.289Z,22.70
2017-07-11T18:47:39.875Z,22.70
2017-07-11T18:50:07.451Z,22.70
2017-07-11T18:52:35.798Z,22.60
2017-07-11T18:55:03.348Z,22.70
2017-07-11T18:57:30.931Z,22.70
2017-07-11T18:59:59.284Z,22.70
2017-07-11T19:02:27.601Z,22.60
2017-07-11T19:04:56.014Z,22.50
2017-07-11T19:07:23.619Z,22.50
2017-07-11T19:09:51.188Z,22.40
2017-07-11T19:12:19.515Z,22.30
2017-07-11T19:14:47.123Z,22.20
2017-07-11T19:17:14.741Z,22.20
2017-07-11T19:19:42.327Z,22.00
2017-07-11T19:22:09.934Z,21.80
2017-07-11T19:24:37.494Z,21.70
2017-07-11T19:27:05.070Z,21.50
2017-07-11T19:29:32.650Z,21.30
2017-07-11T19:32:00.238Z,21.10
2017-07-11T19:34:27.824Z,21.00
2017-07-11T19:36:55.403Z,20.90
2017-07-11T19:39:23.058Z,20.80
2017-07-11T19:41:50.655Z,20.60
2017-07-11T19:44:18.226Z,20.60
2017-07-11T19:46:46.574Z,20.40
2017-07-11T19:49:14.147Z,20.40
2017-07-11T19:51:41.742Z,20.40
2017-07-11T19:54:09.320Z,20.30
2017-07-11T19:56:37.201Z,20.30
2017-07-11T19:59:04.875Z,20.10
2017-07-11T20:01:32.460Z,20.00
2017-07-11T20:04:00.054Z,19.90
2017-07-11T20:06:27.792Z,19.90
2017-07-11T20:08:55.462Z,19.90
2017-07-11T20:11:23.022Z,19.80
2017-07-11T20:13:51.404Z,19.70
2017-07-11T20:16:19.731Z,19.70
2017-07-11T20:18:47.347Z,19.70
2017-07-11T20:21:14.939Z,19.70
2017-07-11T20:23:42.558Z,19.70
2017-07-11T20:26:10.932Z,19.70
2017-07-11T20:28:38.507Z,19.70
2017-07-11T20:31:06.121Z,19.70
2017-07-11T20:33:33.715Z,19.80
2017-07-11T20:36:02.083Z,19.80
2017-07-11T20:38:29.696Z,19.80
2017-07-11T20:40:57.270Z,19.80
2017-07-11T20:43:24.890Z,19.70
2017-07-11T20:45:52.483Z,19.70
2017-07-11T20:48:20.071Z,19.70
2017-07-11T20:50:47.645Z,19.60
2017-07-11T20:53:15.284Z,19.60
2017-07-11T20:55:42.857Z,19.60
2017-07-11T20:58:11.184Z,19.70
2017-07-11T21:00:38.776Z,19.60
2017-07-11T21:03:06.407Z,19.70
2017-07-11T21:05:33.966Z,19.60
2017-07-11T21:08:01.532Z,19.60
2017-07-11T21:10:29.115Z,19.60
2017-07-11T21:12:56.725Z,19.60
2017-07-11T21:15:24.301Z,19.60
2017-07-11T21:17:51.896Z,19.50
2017-07-11T21:20:19.459Z,19.40
2017-07-11T21:22:47.041Z,19.40
2017-07-11T21:25:14.603Z,19.30
2017-07-11T21:27:42.234Z,19.30
2017-07-11T21:30:09.814Z,19.20
2017-07-11T21:32:38.145Z,19.20
2017-07-11T21:35:05.908Z,19.20
2017-07-11T21:37:33.462Z,19.20
2017-07-11T21:40:01.032Z,19.20
2017-07-11T21:42:28.581Z,19.10
2017-07-11T21:44:56.165Z,19.10
2017-07-11T21:47:23.748Z,19.10
2017-07-11T21:49:51.621Z,19.10
2017-07-11T21:52:19.209Z,19.10
2017-07-11T21:54:46.782Z,19.10
2017-07-11T21:57:14.332Z,19.10
2017-07-11T21:59:41.931Z,19.10
2017-07-11T22:02:09.555Z,19.10
2017-07-11T22:04:37.138Z,19.10
2017-07-11T22:07:04.695Z,19.10
2017-07-11T22:09:32.319Z,19.10
2017-07-11T22:11:59.911Z,19.10
2017-07-11T22:14:27.488Z,19.10
2017-07-11T22:16:55.833Z,19.00
2017-07-11T22:19:23.417Z,19.00
2017-07-11T22:21:51.790Z,19.00
2017-07-11T22:24:19.384Z,19.00
2017-07-11T22:26:46.985Z,19.10
2017-07-11T22:29:14.573Z,19.10
2017-07-11T22:31:42.137Z,19.10
2017-07-11T22:34:10.497Z,19.20
2017-07-11T22:36:38.081Z,19.10
2017-07-11T22:39:06.433Z,19.20
2017-07-11T22:41:33.999Z,19.10
2017-07-11T22:44:01.584Z,19.10
2017-07-11T22:46:29.909Z,19.20
2017-07-11T22:48:57.492Z,19.10
2017-07-11T22:51:25.087Z,19.10
2017-07-11T22:53:52.664Z,19.00
2017-07-11T22:56:20.229Z,19.00
2017-07-11T22:58:47.831Z,19.00
2017-07-11T23:01:15.408Z,19.00
2017-07-11T23:03:43.748Z,19.00
2017-07-11T23:06:11.345Z,19.00
2017-07-11T23:08:39.686Z,18.90
2017-07-11T23:11:07.267Z,18.90
2017-07-11T23:13:34.844Z,18.90
2017-07-11T23:16:03.204Z,18.90
2017-07-11T23:18:30.789Z,18.90
2017-07-11T23:20:58.351Z,18.90
2017-07-11T23:23:25.933Z,18.90
2017-07-11T23:25:53.509Z,18.90
2017-07-11T23:28:21.095Z,18.80
2017-07-11T23:30:48.675Z,18.90
2017-07-11T23:33:17.007Z,18.90
2017-07-11T23:35:44.567Z,18.90
2017-07-11T23:38:12.140Z,18.90
2017-07-11T23:40:39.711Z,19.00
2017-07-11T23:43:08.040Z,19.00
2017-07-11T23:45:35.649Z,19.00
2017-07-11T23:48:03.982Z,18.90
2017-07-11T23:50:31.558Z,18.90
2017-07-11T23:52:59.156Z,18.90
2017-07-11T23:55:27.496Z,18.90
2017-07-11T23:57:55.059Z,18.90
